createdAt,value
2017-10-16T00:00:52.730Z,10.20
2017-10-16T00:03:20.582Z,10.53
2017-10-16T00:05:48.343Z,11.13
2017-10-16T00:08:15.864Z,11.27
2017-10-16T00:10:43.384Z,9.70
2017-10-16T00:13:11.243Z,9.67
2017-10-16T00:15:38.803Z,10.57
2017-10-16T00:18:06.363Z,10.73
2017-10-16T00:20:35.262Z,11.07
2017-10-16T00:23:02.795Z,10.93
2017-10-16T00:25:30.419Z,10.80
2017-10-16T00:27:57.984Z,12.05
2017-10-16T00:30:25.535Z,11.07
2017-10-16T00:32:53.082Z,10.18
2017-10-16T00:35:20.710Z,10.30
2017-10-16T00:37:48.240Z,11.00
2017-10-16T00:40:15.768Z,10.80
2017-10-16T00:42:43.387Z,9.85
2017-10-16T00:45:10.919Z,11.95
2017-10-16T00:47:38.448Z,11.63
2017-10-16T00:50:06.283Z,11.25
2017-10-16T00:52:33.843Z,9.32
2017-10-16T00:55:01.385Z,11.70
2017-10-16T00:57:28.994Z,10.55
2017-10-16T00:59:56.611Z,12.20
2017-10-16T01:02:24.166Z,11.10
2017-10-16T01:04:51.939Z,11.68
2017-10-16T01:07:19.491Z,11.23
2017-10-16T01:09:47.057Z,10.40
2017-10-16T01:12:14.795Z,12.07
2017-10-16T01:14:42.373Z,11.82
2017-10-16T01:17:09.930Z,11.10
2017-10-16T01:19:37.883Z,12.25
2017-10-16T01:22:05.460Z,11.20
2017-10-16T01:24:33.020Z,9.80
2017-10-16T01:27:00.683Z,11.12
2017-10-16T01:29:28.216Z,10.77
2017-10-16T01:31:55.749Z,10.40
2017-10-16T01:34:23.356Z,10.57
2017-10-16T01:36:50.948Z,10.93
2017-10-16T01:39:18.499Z,10.55
2017-10-16T01:41:46.075Z,10.85
2017-10-16T01:44:13.611Z,10.38
2017-10-16T01:46:41.153Z,11.82
2017-10-16T01:49:09.104Z,11.40
2017-10-16T01:51:36.681Z,11.82
2017-10-16T01:54:04.239Z,11.23
2017-10-16T01:56:31.928Z,11.40
2017-10-16T01:58:59.457Z,10.50
2017-10-16T02:01:26.992Z,10.40
2017-10-16T02:03:54.578Z,11.82
2017-10-16T02:06:22.110Z,11.18
2017-10-16T02:08:49.635Z,10.75
2017-10-16T02:11:17.256Z,11.02
2017-10-16T02:13:44.783Z,10.90
2017-10-16T02:16:12.324Z,11.60
2017-10-16T02:18:40.015Z,11.90
2017-10-16T02:21:07.539Z,11.93
2017-10-16T02:23:35.100Z,11.18
2017-10-16T02:26:02.918Z,10.90
2017-10-16T02:28:30.486Z,12.63
2017-10-16T02:30:58.035Z,11.60
2017-10-16T02:33:25.809Z,12.65
2017-10-16T02:35:53.358Z,10.43
2017-10-16T02:38:20.918Z,11.90
2017-10-16T02:40:48.664Z,11.12
2017-10-16T02:43:16.235Z,12.13
2017-10-16T02:45:43.800Z,13.27
2017-10-16T02:48:11.461Z,10.43
2017-10-16T02:50:38.985Z,11.18
2017-10-16T02:53:06.582Z,11.35
2017-10-16T02:55:34.324Z,10.38
2017-10-16T02:58:01.940Z,12.27
2017-10-16T03:00:29.479Z,10.93
2017-10-16T03:02:57.063Z,11.55
2017-10-16T03:05:24.600Z,10.75
2017-10-16T03:07:52.131Z,11.18
2017-10-16T03:10:19.806Z,11.10
2017-10-16T03:12:47.340Z,10.85
2017-10-16T03:15:14.879Z,11.02
2017-10-16T03:17:42.581Z,11.35
2017-10-16T03:20:10.106Z,11.88
2017-10-16T03:22:37.640Z,11.75
2017-10-16T03:25:05.361Z,11.23
2017-10-16T03:27:32.919Z,11.57
2017-10-16T03:30:00.580Z,11.85
2017-10-16T03:32:28.159Z,10.82
2017-10-16T03:34:55.802Z,10.70
2017-10-16T03:37:23.361Z,11.90
2017-10-16T03:39:51.329Z,11.20
2017-10-16T03:42:18.860Z,11.30
2017-10-16T03:44:46.394Z,11.52
2017-10-16T03:47:14.199Z,12.95
2017-10-16T03:49:41.719Z,11.82
2017-10-16T03:52:09.264Z,11.18
2017-10-16T03:54:36.823Z,11.80
2017-10-16T03:57:04.355Z,12.35
2017-10-16T03:59:31.904Z,10.93
2017-10-16T04:01:59.655Z,11.20
2017-10-16T04:04:27.197Z,12.60
2017-10-16T04:06:54.788Z,9.95
2017-10-16T04:09:22.560Z,11.80
2017-10-16T04:11:50.110Z,12.70
2017-10-16T04:14:17.669Z,11.65
2017-10-16T04:16:45.320Z,11.40
2017-10-16T04:19:12.847Z,12.77
2017-10-16T04:21:40.371Z,12.23
2017-10-16T04:24:08.104Z,11.02
2017-10-16T04:26:35.669Z,12.63
2017-10-16T04:29:03.228Z,11.12
2017-10-16T04:31:31.007Z,11.65
2017-10-16T04:33:58.536Z,11.80
2017-10-16T04:36:26.063Z,11.90
2017-10-16T04:38:53.771Z,11.00
2017-10-16T04:41:21.332Z,11.40
2017-10-16T04:43:48.890Z,13.38
2017-10-16T04:46:16.567Z,11.93
2017-10-16T04:48:44.134Z,12.85
2017-10-16T04:51:11.716Z,10.73
2017-10-16T04:53:39.567Z,11.38
2017-10-16T04:56:07.188Z,11.32
2017-10-16T04:58:34.772Z,12.18
2017-10-16T05:01:02.473Z,10.27
2017-10-16T05:03:30.140Z,11.65
2017-10-16T05:05:57.834Z,11.30
2017-10-16T05:08:25.665Z,11.68
2017-10-16T05:10:53.264Z,11.60
2017-10-16T05:13:20.820Z,11.93
2017-10-16T05:15:48.668Z,11.50
2017-10-16T05:18:16.208Z,12.13
2017-10-16T05:20:43.743Z,11.07
2017-10-16T05:23:11.532Z,11.50
2017-10-16T05:25:39.069Z,12.90
2017-10-16T05:28:06.621Z,11.70
2017-10-16T05:30:34.475Z,11.38
2017-10-16T05:33:02.031Z,13.27
2017-10-16T05:35:29.595Z,11.10
2017-10-16T05:37:57.459Z,12.05
2017-10-16T05:40:25.105Z,12.65
2017-10-16T05:42:52.655Z,13.50
2017-10-16T05:45:20.615Z,12.60
2017-10-16T05:47:48.143Z,13.82
2017-10-16T05:50:15.700Z,12.20
2017-10-16T05:52:43.400Z,13.35
2017-10-16T05:55:11.016Z,14.45
2017-10-16T05:57:38.563Z,12.85
2017-10-16T06:00:06.407Z,13.50
2017-10-16T06:02:34.004Z,12.23
2017-10-16T06:05:01.563Z,14.18
2017-10-16T06:07:29.270Z,13.68
2017-10-16T06:09:56.839Z,13.27
2017-10-16T06:12:24.382Z,14.10
2017-10-16T06:14:51.990Z,14.35
2017-10-16T06:17:19.546Z,12.00
2017-10-16T06:19:47.079Z,13.20
2017-10-16T06:22:14.951Z,12.73
2017-10-16T06:24:42.501Z,13.57
2017-10-16T06:27:10.061Z,13.05
2017-10-16T06:29:37.751Z,11.77
2017-10-16T06:32:05.346Z,12.45
2017-10-16T06:34:32.871Z,12.50
2017-10-16T06:37:00.639Z,12.93
2017-10-16T06:39:28.176Z,12.80
2017-10-16T06:41:55.716Z,11.40
2017-10-16T06:44:23.397Z,10.73
2017-10-16T06:46:51.008Z,11.05
2017-10-16T06:49:18.603Z,12.02
2017-10-16T06:51:46.474Z,11.85
2017-10-16T06:54:14.312Z,11.65
2017-10-16T06:56:41.897Z,12.20
2017-10-16T06:59:09.552Z,12.35
2017-10-16T07:01:37.122Z,12.27
2017-10-16T07:04:04.768Z,12.55
2017-10-16T07:06:32.443Z,11.48
2017-10-16T07:09:00.034Z,11.68
2017-10-16T07:11:27.591Z,9.90
2017-10-16T07:13:55.362Z,12.18
2017-10-16T07:16:22.903Z,12.60
2017-10-16T07:18:50.456Z,10.57
2017-10-16T07:21:18.437Z,12.23
2017-10-16T07:23:45.964Z,11.47
2017-10-16T07:26:13.524Z,13.23
2017-10-16T07:28:41.270Z,10.80
2017-10-16T07:31:08.804Z,12.13
2017-10-16T07:33:36.338Z,12.63
2017-10-16T07:36:04.364Z,12.07
2017-10-16T07:38:31.950Z,11.17
2017-10-16T07:40:59.621Z,10.37
2017-10-16T07:43:27.259Z,10.20
2017-10-16T07:45:54.851Z,11.60
2017-10-16T07:48:22.433Z,11.50
2017-10-16T07:50:50.269Z,12.57
2017-10-16T07:53:17.837Z,11.60
2017-10-16T07:55:45.391Z,12.67
2017-10-16T07:58:13.127Z,12.03
2017-10-16T08:00:40.690Z,10.33
2017-10-16T08:03:08.329Z,11.50
2017-10-16T08:05:36.040Z,10.53
2017-10-16T08:08:03.786Z,10.40
2017-10-16T08:10:31.328Z,9.67
2017-10-16T08:12:59.098Z,12.17
2017-10-16T08:15:26.683Z,11.40
2017-10-16T08:17:54.223Z,10.30
2017-10-16T08:20:21.987Z,10.97
2017-10-16T08:22:49.536Z,10.77
2017-10-16T08:25:17.097Z,11.90
2017-10-16T08:27:44.994Z,11.07
2017-10-16T08:30:12.524Z,9.63
2017-10-16T08:32:40.126Z,10.27
2017-10-16T08:35:07.972Z,9.70
2017-10-16T08:37:35.646Z,10.30
2017-10-16T08:40:03.171Z,9.40
2017-10-16T08:42:31.456Z,7.70
2017-10-16T08:44:59.008Z,8.37
2017-10-16T08:47:26.548Z,9.20
2017-10-16T08:49:54.403Z,8.93
2017-10-16T08:52:23.165Z,10.50
2017-10-16T08:54:52.517Z,9.17
2017-10-16T08:57:20.322Z,9.13
2017-10-16T08:59:48.174Z,8.90
2017-10-16T09:02:15.868Z,10.03
2017-10-16T09:04:45.010Z,8.07
2017-10-16T09:07:12.953Z,7.63
2017-10-16T09:09:40.763Z,8.53
2017-10-16T09:12:08.865Z,8.80
2017-10-16T09:14:36.983Z,8.50
2017-10-16T09:17:04.655Z,8.03
2017-10-16T09:19:32.628Z,8.00
2017-10-16T09:22:00.695Z,7.47
2017-10-16T09:24:30.292Z,8.23
2017-10-16T09:26:59.061Z,7.63
2017-10-16T09:29:26.844Z,7.57
2017-10-16T09:31:54.410Z,8.30
2017-10-16T09:34:23.397Z,7.80
2017-10-16T09:36:51.385Z,8.03
2017-10-16T09:39:19.848Z,7.43
2017-10-16T09:41:50.197Z,6.00
2017-10-16T09:44:18.140Z,7.27
2017-10-16T09:46:47.192Z,7.13
2017-10-16T09:49:15.107Z,6.97
2017-10-16T09:51:53.213Z,8.03
2017-10-16T09:54:21.290Z,6.47
2017-10-16T09:56:48.940Z,6.97
2017-10-16T09:59:16.892Z,5.90
2017-10-16T10:01:44.811Z,6.30
2017-10-16T10:04:12.546Z,5.73
2017-10-16T10:06:41.082Z,6.00
2017-10-16T10:09:09.909Z,5.57
2017-10-16T10:11:37.775Z,5.73
2017-10-16T10:14:05.541Z,6.10
2017-10-16T10:16:34.032Z,6.80
2017-10-16T10:19:01.808Z,6.33
2017-10-16T10:21:29.469Z,6.30
2017-10-16T10:23:57.419Z,5.60
2017-10-16T10:26:25.178Z,6.20
2017-10-16T10:28:53.052Z,5.60
2017-10-16T10:31:21.855Z,5.57
2017-10-16T10:33:50.046Z,5.90
2017-10-16T10:36:17.884Z,6.30
2017-10-16T10:38:45.771Z,5.60
2017-10-16T10:41:15.142Z,5.20
2017-10-16T10:43:42.803Z,5.77
2017-10-16T10:46:11.022Z,5.40
2017-10-16T10:48:38.588Z,5.10
2017-10-16T10:51:06.375Z,5.60
2017-10-16T10:53:36.523Z,4.93
2017-10-16T10:56:04.236Z,5.95
2017-10-16T10:58:31.826Z,4.97
2017-10-16T11:01:00.020Z,5.20
2017-10-16T11:03:28.089Z,4.87
2017-10-16T11:05:55.877Z,5.78
2017-10-16T11:08:23.729Z,5.10
2017-10-16T11:10:51.564Z,4.95
2017-10-16T11:13:19.349Z,5.05
2017-10-16T11:15:47.634Z,4.95
2017-10-16T11:18:15.595Z,4.30
2017-10-16T11:20:43.361Z,4.70
2017-10-16T11:23:12.046Z,6.28
2017-10-16T11:25:41.035Z,4.10
2017-10-16T11:28:09.723Z,5.05
2017-10-16T11:30:37.697Z,4.45
2017-10-16T11:33:05.430Z,4.50
2017-10-16T11:35:34.902Z,4.12
2017-10-16T11:38:02.941Z,4.55
2017-10-16T11:40:30.451Z,4.05
2017-10-16T11:42:59.230Z,4.72
2017-10-16T11:45:27.450Z,4.82
2017-10-16T11:47:55.521Z,5.00
2017-10-16T11:50:25.908Z,4.12
2017-10-16T11:52:55.684Z,4.30
2017-10-16T11:55:25.090Z,4.65
2017-10-16T11:57:53.825Z,4.72
2017-10-16T12:00:23.342Z,4.60
2017-10-16T12:02:51.674Z,4.22
2017-10-16T12:05:19.559Z,4.30
2017-10-16T12:07:47.465Z,4.60
2017-10-16T12:10:15.305Z,4.97
2017-10-16T12:12:43.291Z,5.28
2017-10-16T12:15:11.984Z,5.87
2017-10-16T12:17:39.850Z,6.03
2017-10-16T12:20:08.121Z,6.10
2017-10-16T12:22:35.711Z,7.00
2017-10-16T12:25:03.275Z,6.77
2017-10-16T12:27:31.458Z,7.97
2017-10-16T12:29:58.994Z,7.57
2017-10-16T12:32:26.850Z,8.40
2017-10-16T12:34:55.065Z,8.00
2017-10-16T12:37:25.171Z,7.00
2017-10-16T12:39:52.907Z,9.30
2017-10-16T12:42:20.972Z,8.57
2017-10-16T12:44:49.659Z,7.20
2017-10-16T12:47:17.326Z,7.30
2017-10-16T12:49:45.220Z,7.70
2017-10-16T12:52:12.799Z,8.40
2017-10-16T12:54:40.715Z,7.43
2017-10-16T12:57:08.394Z,7.67
2017-10-16T12:59:36.100Z,7.80
2017-10-16T13:02:03.801Z,7.97
2017-10-16T13:04:31.770Z,7.90
2017-10-16T13:07:00.252Z,8.70
2017-10-16T13:09:28.014Z,7.70
2017-10-16T13:11:56.297Z,8.20
2017-10-16T13:14:23.971Z,9.13
2017-10-16T13:16:52.239Z,8.03
2017-10-16T13:19:20.404Z,8.80
2017-10-16T13:21:48.206Z,7.30
2017-10-16T13:24:17.775Z,8.77
2017-10-16T13:26:46.059Z,8.00
2017-10-16T13:29:13.611Z,7.30
2017-10-16T13:31:41.208Z,9.23
2017-10-16T13:34:09.891Z,8.17
2017-10-16T13:36:37.956Z,8.50
2017-10-16T13:39:07.346Z,8.30
2017-10-16T13:41:35.289Z,8.13
2017-10-16T13:44:02.943Z,7.90
2017-10-16T13:46:30.722Z,8.03
2017-10-16T13:48:58.908Z,7.87
2017-10-16T13:51:26.457Z,8.90
2017-10-16T13:53:54.117Z,7.90
2017-10-16T13:56:21.814Z,7.70
2017-10-16T13:58:51.268Z,7.33
2017-10-16T14:01:18.942Z,8.53
2017-10-16T14:03:47.118Z,7.87
2017-10-16T14:06:14.904Z,7.40
2017-10-16T14:08:42.988Z,8.30
2017-10-16T14:11:11.713Z,8.10
2017-10-16T14:13:39.743Z,10.00
2017-10-16T14:16:07.883Z,8.30
2017-10-16T14:18:36.669Z,7.80
2017-10-16T14:21:05.355Z,7.67
2017-10-16T14:23:34.044Z,8.13
2017-10-16T14:26:02.125Z,9.00
2017-10-16T14:28:29.655Z,8.70
2017-10-16T14:30:57.183Z,7.83
2017-10-16T14:33:25.018Z,8.70
2017-10-16T14:35:52.560Z,8.30
2017-10-16T14:38:20.522Z,8.37
2017-10-16T14:40:48.261Z,7.40
2017-10-16T14:43:15.780Z,7.70
2017-10-16T14:45:43.319Z,7.57
2017-10-16T14:48:10.879Z,7.20
2017-10-16T14:50:38.454Z,7.93
2017-10-16T14:53:06.049Z,7.53
2017-10-16T14:55:33.641Z,7.67
2017-10-16T14:58:01.200Z,7.03
2017-10-16T15:00:28.963Z,7.10
2017-10-16T15:02:56.544Z,8.67
2017-10-16T15:05:24.212Z,7.97
2017-10-16T15:07:51.754Z,7.10
2017-10-16T15:10:19.508Z,8.33
2017-10-16T15:12:47.068Z,8.33
2017-10-16T15:15:14.589Z,8.20
2017-10-16T15:17:42.185Z,8.30
2017-10-16T15:20:09.787Z,7.40
2017-10-16T15:22:37.366Z,7.63
2017-10-16T15:25:05.019Z,8.43
2017-10-16T15:27:32.559Z,7.70
2017-10-16T15:30:00.084Z,7.80
2017-10-16T15:32:28.052Z,7.70
2017-10-16T15:34:55.715Z,8.00
2017-10-16T15:37:23.280Z,8.90
2017-10-16T15:39:51.062Z,8.23
2017-10-16T15:42:19.927Z,8.30
2017-10-16T15:44:47.495Z,8.50
2017-10-16T15:47:16.380Z,8.30
2017-10-16T15:49:44.038Z,8.20
2017-10-16T15:52:11.597Z,8.00
2017-10-16T15:54:39.451Z,9.33
2017-10-16T15:57:07.126Z,8.03
2017-10-16T15:59:34.813Z,8.80
2017-10-16T16:02:03.268Z,8.73
2017-10-16T16:04:30.899Z,8.43
2017-10-16T16:06:59.246Z,9.27
2017-10-16T16:09:27.481Z,8.07
2017-10-16T16:11:55.038Z,9.50
2017-10-16T16:14:22.814Z,10.00
2017-10-16T16:16:50.720Z,9.53
2017-10-16T16:19:18.538Z,10.90
2017-10-16T16:21:46.424Z,11.47
2017-10-16T16:24:14.271Z,13.73
2017-10-16T16:26:41.998Z,10.97
2017-10-16T16:29:09.565Z,9.93
2017-10-16T16:31:37.470Z,9.63
2017-10-16T16:34:05.227Z,10.00
2017-10-16T16:36:32.885Z,10.13
2017-10-16T16:39:00.884Z,10.27
2017-10-16T16:41:28.619Z,9.60
2017-10-16T16:43:56.404Z,10.97
2017-10-16T16:46:24.143Z,9.80
2017-10-16T16:48:51.814Z,11.00
2017-10-16T16:51:19.468Z,10.40
2017-10-16T16:53:47.542Z,10.47
2017-10-16T16:56:16.144Z,10.90
2017-10-16T16:58:44.502Z,11.50
2017-10-16T17:01:12.516Z,10.50
2017-10-16T17:03:40.455Z,12.60
2017-10-16T17:06:08.224Z,16.43
2017-10-16T17:08:36.501Z,16.30
2017-10-16T17:11:04.528Z,14.97
2017-10-16T17:13:33.244Z,13.03
2017-10-16T17:16:01.631Z,11.13
2017-10-16T17:18:29.487Z,11.17
2017-10-16T17:20:58.269Z,13.00
2017-10-16T17:23:26.340Z,11.90
2017-10-16T17:25:54.317Z,11.40
2017-10-16T17:28:22.278Z,14.53
2017-10-16T17:30:50.616Z,15.10
2017-10-16T17:33:18.932Z,15.23
2017-10-16T17:35:46.770Z,15.13
2017-10-16T17:38:14.579Z,12.67
2017-10-16T17:40:42.533Z,12.60
2017-10-16T17:43:10.421Z,9.97
2017-10-16T17:45:38.468Z,11.00
2017-10-16T17:48:07.277Z,11.10
2017-10-16T17:50:35.745Z,10.70
2017-10-16T17:53:03.706Z,11.67
2017-10-16T17:55:31.674Z,11.03
2017-10-16T17:58:00.157Z,10.77
2017-10-16T18:00:28.159Z,11.07
2017-10-16T18:02:56.093Z,11.50
2017-10-16T18:05:23.959Z,11.10
2017-10-16T18:07:52.051Z,11.03
2017-10-16T18:10:20.001Z,12.60
2017-10-16T18:12:47.867Z,11.27
2017-10-16T18:15:15.917Z,13.07
2017-10-16T18:17:43.700Z,13.63
2017-10-16T18:20:12.284Z,12.53
2017-10-16T18:22:40.560Z,14.17
2017-10-16T18:25:08.462Z,12.93
2017-10-16T18:27:36.702Z,11.47
2017-10-16T18:30:06.104Z,11.67
2017-10-16T18:32:34.763Z,11.67
2017-10-16T18:35:03.855Z,11.90
2017-10-16T18:37:31.922Z,11.73
2017-10-16T18:39:59.823Z,13.30
2017-10-16T18:42:27.741Z,12.93
2017-10-16T18:44:55.982Z,13.03
2017-10-16T18:47:23.833Z,12.67
2017-10-16T18:49:51.699Z,13.20
2017-10-16T18:52:20.691Z,13.70
2017-10-16T18:54:49.172Z,12.00
2017-10-16T18:57:17.109Z,12.70
2017-10-16T18:59:46.360Z,13.67
2017-10-16T19:02:14.432Z,12.93
2017-10-16T19:04:42.276Z,13.00
2017-10-16T19:07:10.401Z,13.83
2017-10-16T19:09:38.768Z,12.40
2017-10-16T19:12:06.796Z,13.40
2017-10-16T19:14:35.381Z,12.27
2017-10-16T19:17:04.272Z,12.80
2017-10-16T19:19:32.443Z,12.33
2017-10-16T19:22:00.617Z,11.87
2017-10-16T19:24:29.099Z,13.27
2017-10-16T19:26:56.964Z,13.30
2017-10-16T19:29:25.217Z,13.90
2017-10-16T19:31:53.312Z,15.53
2017-10-16T19:34:21.139Z,14.43
2017-10-16T19:36:49.354Z,13.17
2017-10-16T19:39:17.221Z,13.77
2017-10-16T19:41:45.290Z,12.80
2017-10-16T19:44:13.438Z,14.10
2017-10-16T19:46:41.540Z,13.10
2017-10-16T19:49:09.508Z,13.00
2017-10-16T19:51:37.677Z,15.07
2017-10-16T19:54:05.544Z,13.90
2017-10-16T19:56:33.409Z,14.30
2017-10-16T19:59:01.685Z,14.67
2017-10-16T20:01:30.449Z,13.40
2017-10-16T20:03:58.338Z,13.07
2017-10-16T20:06:26.513Z,13.37
2017-10-16T20:08:55.120Z,14.03
2017-10-16T20:11:23.168Z,15.20
2017-10-16T20:13:51.342Z,14.47
2017-10-16T20:16:19.310Z,13.67
2017-10-16T20:18:47.380Z,14.13
2017-10-16T20:21:15.457Z,13.80
2017-10-16T20:23:43.276Z,14.27
2017-10-16T20:26:11.287Z,13.10
2017-10-16T20:28:39.466Z,14.50
2017-10-16T20:31:07.453Z,13.20
2017-10-16T20:33:35.500Z,14.53
2017-10-16T20:36:03.469Z,15.20
2017-10-16T20:38:31.223Z,14.00
2017-10-16T20:40:59.104Z,14.90
2017-10-16T20:43:27.437Z,14.77
2017-10-16T20:45:56.266Z,13.03
2017-10-16T20:48:24.143Z,13.60
2017-10-16T20:50:52.101Z,13.80
2017-10-16T20:53:19.862Z,12.80
2017-10-16T20:55:47.937Z,13.40
2017-10-16T20:58:16.211Z,14.27
2017-10-16T21:00:44.180Z,13.93
2017-10-16T21:03:11.947Z,13.50
2017-10-16T21:05:39.678Z,13.30
2017-10-16T21:08:07.371Z,14.03
2017-10-16T21:10:35.238Z,14.10
2017-10-16T21:13:03.205Z,15.03
2017-10-16T21:15:30.788Z,13.37
2017-10-16T21:17:58.447Z,13.33
2017-10-16T21:20:26.318Z,12.37
2017-10-16T21:22:53.891Z,12.43
2017-10-16T21:25:21.675Z,11.70
2017-10-16T21:27:49.505Z,12.50
2017-10-16T21:30:17.041Z,12.33
2017-10-16T21:32:44.701Z,12.53
2017-10-16T21:35:12.312Z,11.87
2017-10-16T21:37:39.935Z,12.00
2017-10-16T21:40:07.455Z,12.40
2017-10-16T21:42:35.395Z,11.97
2017-10-16T21:45:06.704Z,12.53
2017-10-16T21:47:34.235Z,12.50
2017-10-16T21:50:02.003Z,11.67
2017-10-16T21:52:29.628Z,14.27
2017-10-16T21:54:57.326Z,12.90
2017-10-16T21:57:25.194Z,11.93
2017-10-16T21:59:52.760Z,12.30
2017-10-16T22:02:20.279Z,13.80
2017-10-16T22:04:48.072Z,11.97
2017-10-16T22:07:15.615Z,12.30
2017-10-16T22:09:43.143Z,13.57
2017-10-16T22:12:10.854Z,13.73
2017-10-16T22:14:38.376Z,13.93
2017-10-16T22:17:05.924Z,12.60
2017-10-16T22:19:33.734Z,12.70
2017-10-16T22:22:01.319Z,12.50
2017-10-16T22:24:29.280Z,13.90
2017-10-16T22:26:56.933Z,12.90
2017-10-16T22:29:24.461Z,13.07
2017-10-16T22:31:51.990Z,12.53
2017-10-16T22:34:19.703Z,13.53
2017-10-16T22:36:47.228Z,12.20
2017-10-16T22:39:14.771Z,12.00
2017-10-16T22:41:42.554Z,11.97
2017-10-16T22:44:10.084Z,16.50
2017-10-16T22:46:37.615Z,14.70
2017-10-16T22:49:05.467Z,14.90
2017-10-16T22:51:32.992Z,12.63
2017-10-16T22:57:05.233Z,12.77
2017-10-16T22:59:32.979Z,11.03
2017-10-16T23:02:00.507Z,12.57
2017-10-16T23:04:28.064Z,11.40
2017-10-16T23:06:55.859Z,10.37
2017-10-16T23:09:23.419Z,13.60
2017-10-16T23:11:50.940Z,11.83
2017-10-16T23:14:18.513Z,11.47
2017-10-16T23:16:46.035Z,11.03
2017-10-16T23:19:13.590Z,12.07
2017-10-16T23:21:41.244Z,9.87
2017-10-16T23:24:08.895Z,11.23
2017-10-16T23:26:36.411Z,9.47
2017-10-16T23:29:04.220Z,12.50
2017-10-16T23:31:31.759Z,11.50
2017-10-16T23:33:59.275Z,9.30
2017-10-16T23:36:27.119Z,9.40
2017-10-16T23:38:54.744Z,10.87
2017-10-16T23:41:22.835Z,10.07
2017-10-16T23:43:50.681Z,9.97
2017-10-16T23:46:18.216Z,10.73
2017-10-16T23:48:45.731Z,9.50
2017-10-16T23:51:13.432Z,8.60
2017-10-16T23:53:40.955Z,10.13
2017-10-16T23:56:08.479Z,8.43
2017-10-16T23:58:36.156Z,7.97
